Time;durP1;ratioP1;P1;durP2;ratioP2;P2;SDS_P1;SDS_P2;PMS_P1;PMS_P2;Temp;Humidity;BMP_temperature;BMP_pressure;BME280_temperature;BME280_humidity;BME280_pressure;Samples;Min_cycle;Max_cycle;Signal;HPM_P1;HPM_P2
2023/06/23 00:00:32;;;;;;;5.75;2.40;;;;;;;;;;4990836;28;99083;-76
2023/06/23 00:02:58;;;;;;;7.25;2.40;;;;;;;;;;5002145;28;99273;-76
2023/06/23 00:05:25;;;;;;;6.40;2.40;;;;;;;;;;4987888;28;98581;-74
2023/06/23 00:07:52;;;;;;;5.65;2.22;;;;;;;;;;4983983;28;99327;-75
2023/06/23 00:10:19;;;;;;;5.00;2.42;;;;;;;;;;4986072;28;98691;-75
2023/06/23 00:12:46;;;;;;;5.57;2.45;;;;;;;;;;4987640;28;99027;-75
2023/06/23 00:15:13;;;;;;;5.10;2.33;;;;;;;;;;4986694;28;99240;-75
2023/06/23 00:17:41;;;;;;;;;;;;;;;;;;4981374;28;98605;-75
2023/06/23 00:20:10;;;;;;;5.45;2.30;;;;;;;;;;4988918;28;98404;-75
2023/06/23 00:22:38;;;;;;;6.60;2.25;;;;;;;;;;4983604;28;98642;-75
2023/06/23 00:25:04;;;;;;;6.20;2.30;;;;;;;;;;4966951;28;99888;-75
2023/06/23 00:27:31;;;;;;;6.82;2.65;;;;;;;;;;4981848;28;99795;-74
2023/06/23 00:29:57;;;;;;;6.65;2.35;;;;;;;;;;4970840;28;99011;-75
2023/06/23 00:32:25;;;;;;;6.18;2.45;;;;;;;;;;4974678;28;101793;-75
2023/06/23 00:34:51;;;;;;;6.43;2.35;;;;;;;;;;4985136;28;101453;-75
2023/06/23 00:37:19;;;;;;;6.25;2.67;;;;;;;;;;4987503;28;98535;-75
2023/06/23 00:39:46;;;;;;;6.82;2.50;;;;;;;;;;4981525;28;102191;-75
2023/06/23 00:42:13;;;;;;;5.57;2.40;;;;;;;;;;4988825;28;99015;-75
2023/06/23 00:44:40;;;;;;;6.28;2.70;;;;;;;;;;4987678;28;98786;-75
2023/06/23 00:47:08;;;;;;;5.90;2.60;;;;;;;;;;4984501;28;101479;-75
2023/06/23 00:49:35;;;;;;;7.55;2.65;;;;;;;;;;4975370;28;98695;-75
2023/06/23 00:52:03;;;;;;;6.57;2.75;;;;;;;;;;4979705;28;99678;-75
2023/06/23 00:54:34;;;;;;;5.00;2.38;;;;;;;;;;4967983;28;99083;-75
2023/06/23 00:57:04;;;;;;;10.48;3.13;;;;;;;;;;4976484;28;98649;-75
2023/06/23 00:59:32;;;;;;;7.18;2.80;;;;;;;;;;4984651;28;101970;-74
2023/06/23 01:01:59;;;;;;;8.00;3.00;;;;;;;;;;4978726;28;101980;-74
2023/06/23 01:04:27;;;;;;;6.43;3.05;;;;;;;;;;4984011;28;98708;-75
2023/06/23 01:06:54;;;;;;;7.85;2.60;;;;;;;;;;4983824;28;99460;-75
2023/06/23 01:09:42;;;;;;;6.65;2.85;;;;;;;;;;4986968;28;97886;-75
2023/06/23 01:12:08;;;;;;;7.70;3.10;;;;;;;;;;4979363;28;98757;-75
2023/06/23 01:14:39;;;;;;;8.20;3.10;;;;;;;;;;4984535;28;101353;-75
2023/06/23 01:17:09;;;;;;;8.80;3.00;;;;;;;;;;4970122;28;99578;-75
2023/06/23 01:19:36;;;;;;;7.70;3.22;;;;;;;;;;4989180;28;99356;-74
2023/06/23 01:22:11;;;;;;;6.70;2.80;;;;;;;;;;4988254;28;100553;-75
2023/06/23 01:24:40;;;;;;;7.03;2.92;;;;;;;;;;4984523;28;98650;-74
2023/06/23 01:27:07;;;;;;;7.18;3.20;;;;;;;;;;4988879;28;99890;-75
2023/06/23 01:29:36;;;;;;;7.22;3.15;;;;;;;;;;4982843;28;98728;-75
2023/06/23 01:32:26;;;;;;;7.35;3.33;;;;;;;;;;4977503;28;101667;-75
2023/06/23 01:34:55;;;;;;;8.18;3.20;;;;;;;;;;4988206;28;98558;-75
2023/06/23 01:37:35;;;;;;;9.48;4.00;;;;;;;;;;4988206;28;98656;-74
2023/06/23 01:40:09;;;;;;;8.13;3.85;;;;;;;;;;4985846;28;100582;-75
2023/06/23 01:42:38;;;;;;;9.35;4.28;;;;;;;;;;4985392;28;100391;-75
2023/06/23 01:45:05;;;;;;;9.88;4.50;;;;;;;;;;4984061;28;99751;-75
2023/06/23 01:47:34;;;;;;;10.85;4.95;;;;;;;;;;4985023;28;98860;-76
2023/06/23 01:50:02;;;;;;;13.70;5.30;;;;;;;;;;4990562;28;102154;-75
2023/06/23 01:52:30;;;;;;;11.70;5.55;;;;;;;;;;4989005;28;99366;-76
2023/06/23 01:54:57;;;;;;;12.68;6.88;;;;;;;;;;4965898;28;101503;-77
2023/06/23 01:57:24;;;;;;;12.18;6.22;;;;;;;;;;4958932;28;99070;-75
2023/06/23 01:59:52;;;;;;;13.38;6.95;;;;;;;;;;4984708;28;100235;-76
2023/06/23 02:02:19;;;;;;;12.98;7.05;;;;;;;;;;4970323;28;100121;-76
2023/06/23 02:04:45;;;;;;;;;;;;;;;;;;4964068;28;98714;-76
2023/06/23 02:07:16;;;;;;;13.02;6.93;;;;;;;;;;4986758;28;99775;-76
2023/06/23 02:09:43;;;;;;;15.43;7.47;;;;;;;;;;4979125;28;104025;-75
2023/06/23 02:12:11;;;;;;;13.73;7.47;;;;;;;;;;4983637;28;99827;-75
2023/06/23 02:14:38;;;;;;;15.07;7.20;;;;;;;;;;4978202;28;100196;-73
2023/06/23 02:17:09;;;;;;;16.65;6.88;;;;;;;;;;4981091;28;98714;-76
2023/06/23 02:19:41;;;;;;;13.38;7.22;;;;;;;;;;4976147;28;101987;-77
2023/06/23 02:22:11;;;;;;;11.68;6.28;;;;;;;;;;4974528;28;99340;-77
2023/06/23 02:24:39;;;;;;;13.93;7.03;;;;;;;;;;4964371;28;97839;-77
2023/06/23 02:27:07;;;;;;;12.25;6.60;;;;;;;;;;4977382;28;99103;-77
2023/06/23 02:29:36;;;;;;;14.07;6.78;;;;;;;;;;4983619;28;100598;-77
2023/06/23 02:32:02;;;;;;;11.75;6.30;;;;;;;;;;4969768;28;99317;-76
2023/06/23 02:34:29;;;;;;;11.68;5.88;;;;;;;;;;4976905;28;99110;-77
2023/06/23 02:37:02;;;;;;;11.27;5.57;;;;;;;;;;4985678;28;98506;-76
2023/06/23 02:39:31;;;;;;;10.85;6.40;;;;;;;;;;4970987;28;98979;-77
2023/06/23 02:41:58;;;;;;;14.85;6.35;;;;;;;;;;4979099;28;99176;-77
2023/06/23 02:44:29;;;;;;;11.43;5.90;;;;;;;;;;4983929;28;99948;-77
2023/06/23 02:46:57;;;;;;;12.23;5.95;;;;;;;;;;4985466;28;99379;-77
2023/06/23 02:49:26;;;;;;;9.85;5.32;;;;;;;;;;4982214;28;100293;-76
2023/06/23 02:51:56;;;;;;;11.35;5.47;;;;;;;;;;4982433;28;98629;-76
2023/06/23 02:54:23;;;;;;;11.15;5.85;;;;;;;;;;4984710;28;99867;-76
2023/06/23 02:56:51;;;;;;;10.65;5.80;;;;;;;;;;4984205;28;99332;-76
2023/06/23 02:59:20;;;;;;;10.63;6.30;;;;;;;;;;4982269;28;102168;-76
2023/06/23 03:01:48;;;;;;;10.18;5.28;;;;;;;;;;4982171;28;99456;-77
2023/06/23 03:04:16;;;;;;;9.95;5.38;;;;;;;;;;4982851;28;105649;-76
2023/06/23 03:06:44;;;;;;;10.82;5.20;;;;;;;;;;4987553;28;99448;-76
2023/06/23 03:09:10;;;;;;;10.45;5.03;;;;;;;;;;4985150;28;100994;-76
2023/06/23 03:11:37;;;;;;;11.35;5.03;;;;;;;;;;4982419;28;98648;-76
2023/06/23 03:14:05;;;;;;;9.23;4.82;;;;;;;;;;4982517;28;101829;-76
2023/06/23 03:16:44;;;;;;;10.95;5.30;;;;;;;;;;4985933;28;99109;-76
2023/06/23 03:19:17;;;;;;;10.15;5.30;;;;;;;;;;4964478;28;98763;-76
2023/06/23 03:21:48;;;;;;;11.35;4.60;;;;;;;;;;4975168;28;105001;-76
2023/06/23 03:24:15;;;;;;;9.10;4.70;;;;;;;;;;4971356;28;98939;-76
2023/06/23 03:26:46;;;;;;;10.65;5.00;;;;;;;;;;4985069;28;101351;-75
2023/06/23 03:29:13;;;;;;;10.85;5.00;;;;;;;;;;4991127;28;99594;-75
2023/06/23 03:31:41;;;;;;;9.80;4.85;;;;;;;;;;4987727;28;98686;-75
2023/06/23 03:34:11;;;;;;;9.13;4.57;;;;;;;;;;4984395;28;101584;-75
2023/06/23 03:36:38;;;;;;;8.52;4.68;;;;;;;;;;4991086;28;101016;-75
2023/06/23 03:39:09;;;;;;;9.98;4.32;;;;;;;;;;4993920;28;99642;-75
2023/06/23 03:41:40;;;;;;;13.05;5.03;;;;;;;;;;4987207;28;100075;-76
2023/06/23 03:44:25;;;;;;;10.50;4.50;;;;;;;;;;4990549;28;98946;-75
2023/06/23 03:46:57;;;;;;;10.45;4.78;;;;;;;;;;4980158;28;99992;-75
2023/06/23 03:49:27;;;;;;;8.55;3.97;;;;;;;;;;4989540;28;99661;-75
2023/06/23 03:51:55;;;;;;;10.75;4.22;;;;;;;;;;4984282;28;99098;-75
2023/06/23 03:54:22;;;;;;;18.73;4.90;;;;;;;;;;4972967;28;98795;-75
2023/06/23 03:56:51;;;;;;;10.10;4.43;;;;;;;;;;4969788;28;99125;-75
2023/06/23 03:59:19;;;;;;;8.68;4.05;;;;;;;;;;4984462;28;98581;-75
2023/06/23 04:01:47;;;;;;;9.20;4.70;;;;;;;;;;4984988;28;98624;-75
2023/06/23 04:04:14;;;;;;;8.35;4.03;;;;;;;;;;4971357;28;98169;-75
2023/06/23 04:06:42;;;;;;;9.43;4.10;;;;;;;;;;4992851;28;100300;-75
2023/06/23 04:09:09;;;;;;;10.13;4.18;;;;;;;;;;4983473;28;99734;-76
2023/06/23 04:11:37;;;;;;;7.90;4.25;;;;;;;;;;4986495;28;99309;-76
2023/06/23 04:14:03;;;;;;;;;;;;;;;;;;4983362;28;100441;-75
2023/06/23 04:16:32;;;;;;;11.50;5.55;;;;;;;;;;4980633;28;123487;-75
2023/06/23 04:19:01;;;;;;;12.23;6.38;;;;;;;;;;4976367;28;98497;-75
2023/06/23 04:21:28;;;;;;;9.55;4.28;;;;;;;;;;4990120;28;99055;-74
2023/06/23 04:23:56;;;;;;;10.38;4.10;;;;;;;;;;4975496;28;100018;-75
2023/06/23 04:26:22;;;;;;;10.20;4.45;;;;;;;;;;4971412;28;98721;-76
2023/06/23 04:28:52;;;;;;;10.50;5.25;;;;;;;;;;4970121;28;98396;-76
2023/06/23 04:31:19;;;;;;;9.77;4.53;;;;;;;;;;4978579;28;99229;-75
2023/06/23 04:33:45;;;;;;;;;;;;;;;;;;4985066;28;100217;-76
2023/06/23 04:36:13;;;;;;;10.95;5.03;;;;;;;;;;4980186;28;109399;-75
2023/06/23 04:38:42;;;;;;;9.27;4.38;;;;;;;;;;4985008;28;98593;-76
2023/06/23 04:41:12;;;;;;;10.40;5.10;;;;;;;;;;4978371;28;98922;-76
2023/06/23 04:43:40;;;;;;;10.43;4.72;;;;;;;;;;4992629;28;100252;-75
2023/06/23 04:46:11;;;;;;;10.63;4.88;;;;;;;;;;4992325;28;99950;-76
2023/06/23 04:48:40;;;;;;;8.63;4.40;;;;;;;;;;4977560;28;99642;-76
2023/06/23 04:51:07;;;;;;;10.25;4.65;;;;;;;;;;4992444;28;98547;-75
2023/06/23 04:53:38;;;;;;;10.50;5.30;;;;;;;;;;4998573;28;100275;-75
2023/06/23 04:56:06;;;;;;;11.57;4.97;;;;;;;;;;4996355;28;106498;-75
2023/06/23 04:58:34;;;;;;;11.93;5.05;;;;;;;;;;4997264;28;98600;-75
2023/06/23 05:01:01;;;;;;;10.93;5.63;;;;;;;;;;4990714;28;99403;-75
2023/06/23 05:03:29;;;;;;;12.18;6.15;;;;;;;;;;4992514;28;99096;-75
2023/06/23 05:05:57;;;;;;;12.75;6.00;;;;;;;;;;4992286;28;98742;-75
2023/06/23 05:08:25;;;;;;;14.50;6.78;;;;;;;;;;4991328;28;99714;-75
2023/06/23 05:10:52;;;;;;;14.50;6.63;;;;;;;;;;4986441;28;98877;-75
2023/06/23 05:13:20;;;;;;;12.35;6.72;;;;;;;;;;4983662;28;99101;-75
2023/06/23 05:15:47;;;;;;;13.35;6.32;;;;;;;;;;4985613;28;99137;-75
2023/06/23 05:18:16;;;;;;;13.65;7.13;;;;;;;;;;4974442;28;97825;-75
2023/06/23 05:20:44;;;;;;;13.32;6.90;;;;;;;;;;4967547;28;99987;-75
2023/06/23 05:23:12;;;;;;;13.60;7.00;;;;;;;;;;4969225;28;100188;-75
2023/06/23 05:25:40;;;;;;;13.93;6.70;;;;;;;;;;4967833;28;99444;-75
2023/06/23 05:28:07;;;;;;;15.00;7.07;;;;;;;;;;4970872;28;98460;-74
2023/06/23 05:30:35;;;;;;;14.27;6.80;;;;;;;;;;4971015;28;99337;-76
2023/06/23 05:33:02;;;;;;;14.63;6.63;;;;;;;;;;4986121;28;101106;-76
2023/06/23 05:35:30;;;;;;;14.15;6.45;;;;;;;;;;4969239;28;99460;-75
2023/06/23 05:37:59;;;;;;;12.98;6.32;;;;;;;;;;4986352;28;98561;-75
2023/06/23 05:40:26;;;;;;;13.02;7.13;;;;;;;;;;4965248;28;101141;-75
2023/06/23 05:42:53;;;;;;;13.35;6.82;;;;;;;;;;4973741;28;98399;-75
2023/06/23 05:45:19;;;;;;;12.95;6.57;;;;;;;;;;4976208;28;98624;-75
2023/06/23 05:48:07;;;;;;;18.75;7.30;;;;;;;;;;4985357;28;98962;-75
2023/06/23 05:50:35;;;;;;;12.63;6.60;;;;;;;;;;4987272;28;101525;-75
2023/06/23 05:53:07;;;;;;;14.88;6.65;;;;;;;;;;4976626;28;99446;-75
2023/06/23 05:55:46;;;;;;;14.52;6.72;;;;;;;;;;4963933;28;99617;-75
2023/06/23 05:58:13;;;;;;;14.43;6.28;;;;;;;;;;4984065;28;98585;-76
2023/06/23 06:00:54;;;;;;;15.85;7.40;;;;;;;;;;4983999;28;102850;-75
2023/06/23 06:03:24;;;;;;;12.82;6.47;;;;;;;;;;4968002;28;99318;-76
2023/06/23 06:05:53;;;;;;;13.35;6.70;;;;;;;;;;4984649;28;98556;-76
2023/06/23 06:08:23;;;;;;;12.95;6.10;;;;;;;;;;4990018;28;99444;-77
2023/06/23 06:10:51;;;;;;;11.40;5.50;;;;;;;;;;4971150;28;99962;-77
2023/06/23 06:13:19;;;;;;;10.18;4.90;;;;;;;;;;4980842;28;98574;-77
2023/06/23 06:15:46;;;;;;;9.88;4.90;;;;;;;;;;4983750;28;99809;-77
2023/06/23 06:18:15;;;;;;;11.07;5.18;;;;;;;;;;4970971;28;98897;-77
2023/06/23 06:20:42;;;;;;;10.07;4.78;;;;;;;;;;4971044;28;99301;-77
2023/06/23 06:23:09;;;;;;;;;;;;;;;;;;4983083;28;100893;-77
2023/06/23 06:25:52;;;;;;;11.10;4.55;;;;;;;;;;4983654;28;98553;-77
2023/06/23 06:28:19;;;;;;;9.65;4.60;;;;;;;;;;4983367;28;98814;-76
2023/06/23 06:30:48;;;;;;;10.48;4.28;;;;;;;;;;4984848;28;99127;-76
2023/06/23 06:33:15;;;;;;;9.52;4.88;;;;;;;;;;4984195;28;97791;-76
2023/06/23 06:35:42;;;;;;;8.35;4.32;;;;;;;;;;4967674;28;103111;-76
2023/06/23 06:38:10;;;;;;;8.68;4.65;;;;;;;;;;4978328;28;99971;-77
2023/06/23 06:40:36;;;;;;;9.25;4.50;;;;;;;;;;4975145;28;99835;-76
2023/06/23 06:43:03;;;;;;;9.30;4.30;;;;;;;;;;4984533;28;99577;-76
2023/06/23 06:45:31;;;;;;;9.20;3.90;;;;;;;;;;4984295;28;98599;-76
2023/06/23 06:48:03;;;;;;;8.00;3.90;;;;;;;;;;4987898;28;99218;-76
2023/06/23 06:50:30;;;;;;;8.70;4.07;;;;;;;;;;4983568;28;99107;-75
2023/06/23 06:52:58;;;;;;;7.95;4.50;;;;;;;;;;4979291;28;98577;-77
2023/06/23 06:55:24;;;;;;;8.13;4.07;;;;;;;;;;4979448;28;101642;-76
2023/06/23 06:57:51;;;;;;;10.20;4.00;;;;;;;;;;4977512;28;97851;-76
2023/06/23 07:00:19;;;;;;;9.57;3.40;;;;;;;;;;4976334;28;98566;-75
2023/06/23 07:02:46;;;;;;;7.95;3.85;;;;;;;;;;4979096;28;102547;-76
2023/06/23 07:05:13;;;;;;;7.20;3.53;;;;;;;;;;4983796;28;99505;-76
2023/06/23 07:07:40;;;;;;;7.80;3.28;;;;;;;;;;4969614;28;105919;-76
2023/06/23 07:10:07;;;;;;;9.07;3.45;;;;;;;;;;4982435;28;100178;-76
2023/06/23 07:12:33;;;;;;;10.15;4.07;;;;;;;;;;4982751;28;98731;-76
2023/06/23 07:15:00;;;;;;;11.23;4.00;;;;;;;;;;4984863;28;99186;-76
2023/06/23 07:17:27;;;;;;;10.27;4.00;;;;;;;;;;4979163;28;99201;-76
2023/06/23 07:19:53;;;;;;;9.60;3.90;;;;;;;;;;4963825;28;99097;-77
2023/06/23 07:22:20;;;;;;;9.18;3.90;;;;;;;;;;4970225;28;100850;-76
2023/06/23 07:24:47;;;;;;;7.78;3.50;;;;;;;;;;4963239;28;98883;-76
2023/06/23 07:27:15;;;;;;;8.70;3.53;;;;;;;;;;4963153;28;98749;-76
2023/06/23 07:29:42;;;;;;;9.45;5.18;;;;;;;;;;4961077;28;104220;-76
2023/06/23 07:32:10;;;;;;;6.30;3.08;;;;;;;;;;4962129;28;98971;-77
2023/06/23 07:34:36;;;;;;;9.13;3.20;;;;;;;;;;4976601;28;99851;-77
2023/06/23 07:37:04;;;;;;;8.00;3.38;;;;;;;;;;4990301;28;102107;-76
2023/06/23 07:39:30;;;;;;;11.45;3.83;;;;;;;;;;4972901;28;98636;-76
2023/06/23 07:41:56;;;;;;;13.35;5.97;;;;;;;;;;4983323;28;99244;-77
2023/06/23 07:44:23;;;;;;;8.77;3.92;;;;;;;;;;4975732;28;98759;-77
2023/06/23 07:46:49;;;;;;;9.43;3.15;;;;;;;;;;4971388;28;101049;-77
2023/06/23 07:49:16;;;;;;;9.40;5.03;;;;;;;;;;4976654;28;99173;-75
2023/06/23 07:51:43;;;;;;;8.82;4.38;;;;;;;;;;4977130;28;98663;-76
2023/06/23 07:54:09;;;;;;;12.48;5.90;;;;;;;;;;4979876;28;99322;-76
2023/06/23 07:56:36;;;;;;;6.80;3.70;;;;;;;;;;4983097;28;99061;-76
2023/06/23 07:59:03;;;;;;;8.10;4.00;;;;;;;;;;4983539;28;98670;-76
2023/06/23 08:01:30;;;;;;;7.75;3.83;;;;;;;;;;4984553;28;99094;-76
2023/06/23 08:03:56;;;;;;;8.88;3.88;;;;;;;;;;4966953;28;98532;-76
2023/06/23 08:06:23;;;;;;;12.27;4.32;;;;;;;;;;4972577;28;99913;-76
2023/06/23 08:08:50;;;;;;;7.45;3.55;;;;;;;;;;4977944;28;99168;-76
2023/06/23 08:11:17;;;;;;;8.20;3.90;;;;;;;;;;4983161;28;98285;-76
2023/06/23 08:13:44;;;;;;;7.70;3.70;;;;;;;;;;4985026;28;99122;-76
2023/06/23 08:16:10;;;;;;;7.80;3.92;;;;;;;;;;4984613;28;99918;-76
2023/06/23 08:18:37;;;;;;;9.20;3.90;;;;;;;;;;4983066;28;100411;-76
2023/06/23 08:21:04;;;;;;;8.48;3.70;;;;;;;;;;4986412;28;100443;-76
2023/06/23 08:23:30;;;;;;;7.03;3.58;;;;;;;;;;4982287;28;99456;-76
2023/06/23 08:26:02;;;;;;;8.18;4.10;;;;;;;;;;4985941;28;99182;-76
2023/06/23 08:28:29;;;;;;;7.28;3.58;;;;;;;;;;4983987;28;99135;-76
2023/06/23 08:30:56;;;;;;;7.65;3.80;;;;;;;;;;4985725;28;99237;-76
2023/06/23 08:33:23;;;;;;;6.82;3.22;;;;;;;;;;4971292;28;99624;-76
2023/06/23 08:35:49;;;;;;;7.68;3.38;;;;;;;;;;4987298;28;98453;-76
2023/06/23 08:38:16;;;;;;;6.95;3.25;;;;;;;;;;4978645;28;98568;-75
2023/06/23 08:40:43;;;;;;;6.88;3.67;;;;;;;;;;4985918;28;99694;-76
2023/06/23 08:43:10;;;;;;;6.70;3.20;;;;;;;;;;4984836;28;99982;-76
2023/06/23 08:45:42;;;;;;;6.22;3.20;;;;;;;;;;4984601;28;98588;-76
2023/06/23 08:48:10;;;;;;;8.27;3.72;;;;;;;;;;4966686;28;99145;-76
2023/06/23 08:50:37;;;;;;;7.68;3.60;;;;;;;;;;4978251;28;100099;-76
2023/06/23 08:53:04;;;;;;;7.25;3.20;;;;;;;;;;4979109;28;100002;-76
2023/06/23 08:55:34;;;;;;;8.55;3.63;;;;;;;;;;4978003;28;99271;-76
2023/06/23 08:58:01;;;;;;;6.82;3.28;;;;;;;;;;4980580;28;98664;-75
2023/06/23 09:00:28;;;;;;;8.10;3.70;;;;;;;;;;4985556;28;99285;-75
2023/06/23 09:02:56;;;;;;;7.22;3.20;;;;;;;;;;4973490;28;103803;-75
2023/06/23 09:05:23;;;;;;;6.65;3.42;;;;;;;;;;4969044;28;99520;-75
2023/06/23 09:07:49;;;;;;;7.10;3.22;;;;;;;;;;4964884;28;99860;-77
2023/06/23 09:10:17;;;;;;;7.38;3.33;;;;;;;;;;4965259;28;98589;-77
2023/06/23 09:13:02;;;;;;;9.10;4.65;;;;;;;;;;4983399;28;101763;-78
2023/06/23 09:15:30;;;;;;;8.82;3.60;;;;;;;;;;4973647;28;99338;-76
2023/06/23 09:17:58;;;;;;;;;;;;;;;;;;4984117;28;98558;-76
2023/06/23 09:20:25;;;;;;;7.45;3.45;;;;;;;;;;4985688;28;109599;-76
2023/06/23 09:22:53;;;;;;;7.05;3.25;;;;;;;;;;4982811;28;100095;-76
2023/06/23 09:25:38;;;;;;;7.32;3.78;;;;;;;;;;4984058;28;98139;-76
2023/06/23 09:28:05;;;;;;;7.03;3.45;;;;;;;;;;4984243;28;98976;-76
2023/06/23 09:30:34;;;;;;;9.38;3.83;;;;;;;;;;4981150;28;98716;-76
2023/06/23 09:33:05;;;;;;;10.95;4.90;;;;;;;;;;4984799;28;99246;-75
2023/06/23 09:35:32;;;;;;;9.23;3.75;;;;;;;;;;4978192;28;99297;-75
2023/06/23 09:38:01;;;;;;;7.60;4.00;;;;;;;;;;4972691;28;98761;-75
2023/06/23 09:40:28;;;;;;;8.85;3.63;;;;;;;;;;4987417;28;98914;-76
2023/06/23 09:42:58;;;;;;;7.93;4.05;;;;;;;;;;4990788;28;99237;-76
2023/06/23 09:45:25;;;;;;;6.90;3.50;;;;;;;;;;4982087;28;98757;-76
2023/06/23 09:47:52;;;;;;;9.85;5.05;;;;;;;;;;4985513;28;98965;-75
2023/06/23 09:50:21;;;;;;;10.15;5.50;;;;;;;;;;4991150;28;101584;-76
2023/06/23 09:52:58;;;;;;;7.93;3.72;;;;;;;;;;4983959;28;99291;-76
2023/06/23 09:55:25;;;;;;;7.00;3.70;;;;;;;;;;4975721;28;99146;-76
2023/06/23 09:57:51;;;;;;;7.18;3.50;;;;;;;;;;4981268;28;99776;-76
2023/06/23 10:00:18;;;;;;;6.68;3.22;;;;;;;;;;4984994;28;99633;-76
2023/06/23 10:02:45;;;;;;;9.10;4.40;;;;;;;;;;4981852;28;100105;-76
2023/06/23 10:05:15;;;;;;;7.00;3.55;;;;;;;;;;4994410;28;98524;-76
2023/06/23 10:07:42;;;;;;;7.78;3.92;;;;;;;;;;4983811;28;105372;-76
2023/06/23 10:10:08;;;;;;;7.15;3.50;;;;;;;;;;4971083;28;100549;-75
2023/06/23 10:12:48;;;;;;;7.82;3.30;;;;;;;;;;4986608;28;99045;-75
2023/06/23 10:15:15;;;;;;;;;;;;;;;;;;4987684;28;98693;-76
2023/06/23 10:17:41;;;;;;;9.13;4.05;;;;;;;;;;4978204;28;104758;-76
2023/06/23 10:20:08;;;;;;;8.00;3.60;;;;;;;;;;4966213;28;99324;-76
2023/06/23 10:22:36;;;;;;;10.98;4.55;;;;;;;;;;4983722;28;100652;-76
2023/06/23 10:25:04;;;;;;;8.35;3.67;;;;;;;;;;4984862;28;98859;-77
2023/06/23 10:27:32;;;;;;;7.82;3.50;;;;;;;;;;4983717;28;99832;-76
2023/06/23 10:29:59;;;;;;;;;;;;;;;;;;4964867;28;99232;-76
2023/06/23 10:32:28;;;;;;;7.18;3.30;;;;;;;;;;4965938;28;107071;-76
2023/06/23 10:35:02;;;;;;;7.72;3.40;;;;;;;;;;4980579;28;99024;-76
2023/06/23 10:37:30;;;;;;;9.23;3.80;;;;;;;;;;4983629;28;98732;-75
2023/06/23 10:40:11;;;;;;;7.82;3.20;;;;;;;;;;4977042;28;98823;-76
2023/06/23 10:42:37;;;;;;;;;;;;;;;;;;4973125;28;100670;-76
2023/06/23 10:45:04;;;;;;;7.55;3.45;;;;;;;;;;4979657;28;98937;-77
2023/06/23 10:47:33;;;;;;;6.90;3.20;;;;;;;;;;4979543;28;99457;-75
2023/06/23 10:50:00;;;;;;;7.53;3.30;;;;;;;;;;4975571;28;99036;-76
2023/06/23 10:52:27;;;;;;;7.00;3.20;;;;;;;;;;4978739;28;99230;-77
2023/06/23 10:54:53;;;;;;;7.30;3.17;;;;;;;;;;4985294;28;99331;-75
2023/06/23 10:57:20;;;;;;;8.52;3.45;;;;;;;;;;4980097;28;101524;-75
2023/06/23 11:00:06;;;;;;;7.18;3.10;;;;;;;;;;4984821;28;99204;-74
2023/06/23 11:02:52;;;;;;;6.55;2.80;;;;;;;;;;4983906;28;99107;-76
2023/06/23 11:05:19;;;;;;;7.03;2.78;;;;;;;;;;4989884;28;97854;-76
2023/06/23 11:07:45;;;;;;;;;;;;;;;;;;4986075;28;99393;-77
2023/06/23 11:10:12;;;;;;;6.82;3.00;;;;;;;;;;4973238;28;99310;-76
2023/06/23 11:12:40;;;;;;;6.15;2.92;;;;;;;;;;4976031;28;99433;-76
2023/06/23 11:15:15;;;;;;;6.20;2.80;;;;;;;;;;4973581;28;99632;-76
2023/06/23 11:18:03;;;;;;;6.80;2.80;;;;;;;;;;4976292;28;103824;-76
2023/06/23 11:20:30;;;;;;;8.70;3.00;;;;;;;;;;4978658;28;99949;-76
2023/06/23 11:23:00;;;;;;;7.80;2.70;;;;;;;;;;4975104;28;98959;-76
2023/06/23 11:25:33;;;;;;;6.88;2.90;;;;;;;;;;4983027;28;98570;-76
2023/06/23 11:28:19;;;;;;;6.35;2.53;;;;;;;;;;4984043;28;100192;-76
2023/06/23 11:30:45;;;;;;;;;;;;;;;;;;4984713;28;98515;-76
2023/06/23 11:33:38;;;;;;;6.20;2.50;;;;;;;;;;4984845;28;100292;-76
2023/06/23 11:36:05;;;;;;;6.47;2.55;;;;;;;;;;4973176;28;103500;-75
2023/06/23 11:38:32;;;;;;;5.15;2.45;;;;;;;;;;4983067;28;100343;-75
2023/06/23 11:40:59;;;;;;;5.25;2.40;;;;;;;;;;4984363;28;98566;-75
2023/06/23 11:43:26;;;;;;;;;;;;;;;;;;4994150;28;100375;-76
2023/06/23 11:45:56;;;;;;;5.97;2.60;;;;;;;;;;4967825;28;98884;-77
2023/06/23 11:48:29;;;;;;;5.90;2.55;;;;;;;;;;4966647;28;99773;-76
2023/06/23 11:50:56;;;;;;;5.97;2.63;;;;;;;;;;4993613;28;100111;-76
2023/06/23 11:53:23;;;;;;;5.70;2.72;;;;;;;;;;4973297;28;98924;-76
2023/06/23 11:55:51;;;;;;;5.50;2.50;;;;;;;;;;4981293;28;101181;-76
2023/06/23 11:58:18;;;;;;;6.20;2.60;;;;;;;;;;4985436;28;100232;-76
2023/06/23 12:00:44;;;;;;;6.57;2.90;;;;;;;;;;4987656;28;98924;-76
2023/06/23 12:03:15;;;;;;;4.82;2.42;;;;;;;;;;4976451;28;99279;-76
2023/06/23 12:05:42;;;;;;;4.95;2.50;;;;;;;;;;4995216;28;98638;-76
2023/06/23 12:08:09;;;;;;;5.57;2.42;;;;;;;;;;4983980;28;98732;-76
2023/06/23 12:10:36;;;;;;;6.32;2.60;;;;;;;;;;4976291;28;99065;-76
2023/06/23 12:13:05;;;;;;;5.53;2.58;;;;;;;;;;4986805;28;98495;-76
2023/06/23 12:15:35;;;;;;;5.43;2.50;;;;;;;;;;4985935;28;98624;-76
2023/06/23 12:18:02;;;;;;;6.30;2.75;;;;;;;;;;4985106;28;99775;-76
2023/06/23 12:20:28;;;;;;;6.10;2.70;;;;;;;;;;4982677;28;97764;-76
2023/06/23 12:23:00;;;;;;;5.32;2.40;;;;;;;;;;4967428;28;99532;-76
2023/06/23 12:25:33;;;;;;;5.60;2.80;;;;;;;;;;4975504;28;100127;-75
2023/06/23 12:28:04;;;;;;;4.80;2.35;;;;;;;;;;4986193;28;100090;-76
2023/06/23 12:30:37;;;;;;;6.72;2.63;;;;;;;;;;4986047;28;99508;-75
2023/06/23 12:33:04;;;;;;;4.57;2.30;;;;;;;;;;4985330;28;98986;-75
2023/06/23 12:35:30;;;;;;;4.93;2.28;;;;;;;;;;4990717;28;99623;-75
2023/06/23 12:37:58;;;;;;;4.90;2.60;;;;;;;;;;4984534;28;102185;-75
2023/06/23 12:40:31;;;;;;;5.35;2.60;;;;;;;;;;4986178;28;98594;-75
2023/06/23 12:42:58;;;;;;;4.50;2.45;;;;;;;;;;4989164;28;101594;-76
2023/06/23 12:45:25;;;;;;;6.45;2.80;;;;;;;;;;4979296;28;98259;-75
2023/06/23 12:47:52;;;;;;;7.35;2.67;;;;;;;;;;4986862;28;98518;-76
2023/06/23 12:50:26;;;;;;;7.68;3.10;;;;;;;;;;4991268;28;99470;-75
2023/06/23 12:53:03;;;;;;;7.47;2.97;;;;;;;;;;4983090;28;99288;-77
2023/06/23 12:55:30;;;;;;;6.93;3.08;;;;;;;;;;4987853;28;106835;-76
2023/06/23 12:57:58;;;;;;;5.70;2.85;;;;;;;;;;4988958;28;100413;-78
2023/06/23 13:00:24;;;;;;;6.60;3.17;;;;;;;;;;4982086;28;99916;-77
2023/06/23 13:02:52;;;;;;;8.10;3.10;;;;;;;;;;4979118;28;99012;-77
2023/06/23 13:05:20;;;;;;;8.73;3.30;;;;;;;;;;4992057;28;99652;-76
2023/06/23 13:07:46;;;;;;;8.73;3.08;;;;;;;;;;4989090;28;98603;-75
2023/06/23 13:10:13;;;;;;;9.55;3.30;;;;;;;;;;4993277;28;98573;-75
2023/06/23 13:12:39;;;;;;;8.05;3.10;;;;;;;;;;4993351;28;99193;-76
2023/06/23 13:15:06;;;;;;;7.15;3.20;;;;;;;;;;4992557;28;99556;-75
2023/06/23 13:17:33;;;;;;;7.10;2.97;;;;;;;;;;4981197;28;99832;-76
2023/06/23 13:19:59;;;;;;;7.13;3.03;;;;;;;;;;4985245;28;99344;-74
2023/06/23 13:22:26;;;;;;;7.65;2.90;;;;;;;;;;4979222;28;100822;-76
2023/06/23 13:24:56;;;;;;;6.70;2.80;;;;;;;;;;4991265;28;100395;-76
2023/06/23 13:27:23;;;;;;;7.13;2.97;;;;;;;;;;4986343;28;99446;-75
2023/06/23 13:29:50;;;;;;;6.82;2.55;;;;;;;;;;4993013;28;99156;-75
2023/06/23 13:32:18;;;;;;;7.20;2.95;;;;;;;;;;4989838;28;98990;-75
2023/06/23 13:34:45;;;;;;;7.07;2.95;;;;;;;;;;4994185;28;99729;-75
2023/06/23 13:37:12;;;;;;;5.68;2.92;;;;;;;;;;4987663;28;100415;-75
2023/06/23 13:39:39;;;;;;;5.47;2.65;;;;;;;;;;4985231;28;98642;-77
2023/06/23 13:42:05;;;;;;;5.18;2.60;;;;;;;;;;4978311;28;100991;-77
2023/06/23 13:44:32;;;;;;;4.90;2.42;;;;;;;;;;4992589;28;99053;-77
2023/06/23 13:46:58;;;;;;;6.22;2.72;;;;;;;;;;4965911;28;98968;-76
2023/06/23 13:49:25;;;;;;;7.07;2.83;;;;;;;;;;4971141;28;98835;-76
2023/06/23 13:51:52;;;;;;;5.82;2.60;;;;;;;;;;4990583;28;99764;-76
2023/06/23 13:54:19;;;;;;;6.00;2.88;;;;;;;;;;4968828;28;98698;-75
2023/06/23 13:56:45;;;;;;;5.00;2.40;;;;;;;;;;4981054;28;99253;-75
2023/06/23 13:59:12;;;;;;;6.45;2.88;;;;;;;;;;4985875;28;97769;-75
2023/06/23 14:01:38;;;;;;;7.05;3.38;;;;;;;;;;4982609;28;100134;-75
2023/06/23 14:04:06;;;;;;;6.00;2.80;;;;;;;;;;4985297;28;100502;-76
2023/06/23 14:06:33;;;;;;;5.38;2.72;;;;;;;;;;4988770;28;99610;-75
2023/06/23 14:09:00;;;;;;;7.03;2.90;;;;;;;;;;4962956;28;100890;-75
2023/06/23 14:11:26;;;;;;;9.57;2.90;;;;;;;;;;4981712;28;100794;-74
2023/06/23 14:13:53;;;;;;;7.53;2.85;;;;;;;;;;4977175;28;98964;-79
2023/06/23 14:16:19;;;;;;;7.20;3.20;;;;;;;;;;4970358;28;99232;-79
2023/06/23 14:18:46;;;;;;;7.80;3.25;;;;;;;;;;4969182;28;99254;-79
2023/06/23 14:21:12;;;;;;;7.90;3.28;;;;;;;;;;4977819;28;100072;-78
2023/06/23 14:23:39;;;;;;;7.85;3.47;;;;;;;;;;4973188;28;98376;-78
2023/06/23 14:26:06;;;;;;;6.15;2.95;;;;;;;;;;4995663;28;98673;-78
2023/06/23 14:28:32;;;;;;;7.85;3.25;;;;;;;;;;4984780;28;100989;-80
2023/06/23 14:30:59;;;;;;;7.75;3.42;;;;;;;;;;4983376;28;100807;-79
2023/06/23 14:33:26;;;;;;;6.90;2.85;;;;;;;;;;4984474;28;98522;-78
2023/06/23 14:35:52;;;;;;;6.72;3.00;;;;;;;;;;4980003;28;100690;-78
2023/06/23 14:38:19;;;;;;;5.80;2.72;;;;;;;;;;4984098;28;98577;-78
2023/06/23 14:40:46;;;;;;;7.32;2.60;;;;;;;;;;4984362;28;101611;-78
2023/06/23 14:43:12;;;;;;;6.15;2.88;;;;;;;;;;4982875;28;99902;-78
2023/06/23 14:45:39;;;;;;;5.43;2.58;;;;;;;;;;4963955;28;98599;-78